Time;durP1;ratioP1;P1;durP2;ratioP2;P2;SDS_P1;SDS_P2;PMS_P1;PMS_P2;Temp;Humidity;BMP_temperature;BMP_pressure;BME280_temperature;BME280_humidity;BME280_pressure;Samples;Min_cycle;Max_cycle;Signal;HPM_P1;HPM_P2
2023/07/29 00:00:50;;;;;;;0.55;0.55;;;18.20;99.90;;;;;;5073609;28;20074;-91
2023/07/29 00:03:18;;;;;;;0.40;0.40;;;18.30;99.90;;;;;;5074199;28;20724;-89
2023/07/29 00:05:44;;;;;;;0.40;0.40;;;18.10;99.90;;;;;;5070499;28;20040;-89
2023/07/29 00:08:10;;;;;;;0.40;0.40;;;18.10;99.90;;;;;;5069177;28;20075;-91
2023/07/29 00:10:37;;;;;;;0.50;0.50;;;18.10;99.90;;;;;;5087733;28;20093;-92
2023/07/29 00:13:05;;;;;;;0.40;0.40;;;18.50;99.90;;;;;;5073267;28;20043;-93
2023/07/29 00:15:31;;;;;;;0.43;0.43;;;18.50;99.90;;;;;;5072227;28;20043;-91
2023/07/29 00:17:57;;;;;;;0.40;0.40;;;18.40;99.90;;;;;;5075923;28;20040;-92
2023/07/29 00:20:23;;;;;;;0.40;0.40;;;18.20;99.90;;;;;;5072861;28;20561;-91
2023/07/29 00:22:55;;;;;;;0.40;0.40;;;18.70;99.90;;;;;;5074285;28;20054;-92
2023/07/29 00:25:21;;;;;;;0.40;0.40;;;18.60;99.90;;;;;;5107928;28;20039;-91
2023/07/29 00:27:47;;;;;;;0.40;0.40;;;18.40;99.90;;;;;;5080057;28;20046;-90
2023/07/29 00:30:13;;;;;;;0.40;0.40;;;18.60;99.90;;;;;;5069595;28;20035;-91
2023/07/29 00:32:39;;;;;;;0.50;0.50;;;18.60;99.90;;;;;;5091112;28;20050;-90
2023/07/29 00:35:05;;;;;;;0.40;0.40;;;18.60;99.90;;;;;;5075510;28;20070;-91
2023/07/29 00:37:31;;;;;;;0.50;0.50;;;18.80;99.90;;;;;;5089061;28;20088;-89
2023/07/29 00:39:58;;;;;;;0.40;0.40;;;18.50;99.90;;;;;;5087803;28;20044;-91
2023/07/29 00:42:24;;;;;;;0.40;0.40;;;18.30;99.90;;;;;;5075677;28;20040;-91
2023/07/29 00:44:49;;;;;;;0.40;0.40;;;18.40;99.90;;;;;;5090646;28;20044;-91
2023/07/29 00:47:16;;;;;;;0.40;0.40;;;18.60;99.90;;;;;;5074753;28;20093;-92
2023/07/29 00:49:45;;;;;;;0.40;0.40;;;18.40;99.90;;;;;;5090047;28;20190;-89
2023/07/29 00:52:12;;;;;;;0.40;0.40;;;18.60;99.90;;;;;;5071499;28;20098;-90
2023/07/29 00:54:41;;;;;;;0.63;0.63;;;18.40;99.90;;;;;;5070244;28;20056;-90
2023/07/29 00:57:09;;;;;;;0.45;0.45;;;18.50;99.90;;;;;;5084486;28;20927;-91
2023/07/29 00:59:38;;;;;;;0.40;0.40;;;18.50;99.90;;;;;;5071988;28;20633;-91
2023/07/29 01:02:04;;;;;;;0.40;0.40;;;18.30;99.90;;;;;;5073584;28;20480;-92
2023/07/29 01:04:33;;;;;;;0.40;0.40;;;18.40;99.90;;;;;;5073932;28;20409;-95
2023/07/29 01:07:30;;;;;;;0.50;0.50;;;18.30;99.90;;;;;;5073650;28;20032;-92
2023/07/29 01:10:06;;;;;;;0.50;0.50;;;18.70;99.90;;;;;;5064308;28;20066;-92
2023/07/29 01:12:59;;;;;;;0.50;0.50;;;18.50;99.90;;;;;;5067302;28;20048;-93
2023/07/29 01:15:51;;;;;;;0.50;0.50;;;18.60;99.90;;;;;;5092341;28;20035;-89
2023/07/29 01:18:38;;;;;;;0.50;0.50;;;18.70;99.90;;;;;;5072959;28;20043;-94
2023/07/29 01:21:10;;;;;;;0.50;0.50;;;18.70;99.90;;;;;;5077908;28;20058;-92
2023/07/29 01:23:36;;;;;;;0.50;0.50;;;18.30;99.90;;;;;;5074811;28;20075;-92
2023/07/29 01:26:03;;;;;;;0.55;0.55;;;18.40;99.90;;;;;;5074198;28;20040;-91
2023/07/29 01:28:29;;;;;;;0.50;0.50;;;18.50;99.90;;;;;;5076044;28;20036;-92
2023/07/29 01:31:47;;;;;;;0.50;0.50;;;18.60;99.90;;;;;;5074080;28;20052;-93
2023/07/29 01:34:15;;;;;;;0.57;0.57;;;18.70;99.90;;;;;;5003139;28;20052;-92
2023/07/29 01:36:43;;;;;;;0.60;0.60;;;18.70;99.90;;;;;;5034715;28;20054;-93
2023/07/29 01:39:11;;;;;;;0.52;0.52;;;18.90;99.90;;;;;;5070370;28;20054;-90
2023/07/29 01:41:37;;;;;;;0.50;0.50;;;18.50;99.90;;;;;;5075475;28;20051;-91
2023/07/29 01:44:04;;;;;;;0.52;0.52;;;18.90;99.90;;;;;;5073517;28;20047;-91
2023/07/29 01:46:31;;;;;;;0.60;0.60;;;18.60;99.90;;;;;;5074155;28;20790;-92
2023/07/29 01:49:00;;;;;;;0.60;0.60;;;18.30;99.90;;;;;;5075792;28;20040;-95
2023/07/29 01:51:26;;;;;;;0.60;0.60;;;18.60;99.90;;;;;;5076572;28;20040;-93
2023/07/29 01:53:55;;;;;;;0.52;0.52;;;18.30;99.90;;;;;;5074186;28;20032;-93
2023/07/29 01:56:21;;;;;;;0.57;0.57;;;18.40;99.90;;;;;;5074774;28;20044;-91
2023/07/29 01:58:47;;;;;;;0.50;0.50;;;18.60;99.90;;;;;;5075915;28;20078;-90
2023/07/29 02:01:16;;;;;;;0.60;0.60;;;18.40;99.90;;;;;;5075891;28;20074;-93
2023/07/29 02:03:41;;;;;;;0.57;0.57;;;18.40;99.90;;;;;;5074611;28;20050;-93
2023/07/29 02:06:33;;;;;;;0.57;0.57;;;18.40;99.90;;;;;;5075377;28;20051;-94
2023/07/29 02:09:17;;;;;;;0.60;0.60;;;18.40;99.90;;;;;;5074974;28;20378;-94
2023/07/29 02:11:45;;;;;;;0.65;0.65;;;18.20;99.90;;;;;;5075575;28;20051;-96
2023/07/29 02:14:29;;;;;;;0.60;0.60;;;18.40;99.90;;;;;;5076324;28;20035;-95
2023/07/29 02:17:18;;;;;;;0.65;0.65;;;18.50;99.90;;;;;;5075157;28;20036;-94
2023/07/29 02:19:44;;;;;;;0.60;0.60;;;18.30;99.90;;;;;;5074740;28;20032;-94
2023/07/29 02:22:20;;;;;;;0.60;0.60;;;18.30;99.90;;;;;;5075238;28;20055;-93
2023/07/29 02:24:46;;;;;;;0.63;0.63;;;18.20;99.90;;;;;;5075738;28;20073;-91
2023/07/29 02:27:40;;;;;;;0.60;0.60;;;18.30;99.90;;;;;;5074596;28;20045;-93
2023/07/29 02:30:07;;;;;;;0.68;0.68;;;18.20;99.90;;;;;;5073059;28;20050;-93
2023/07/29 02:32:42;;;;;;;0.68;0.68;;;18.20;99.90;;;;;;5075312;28;20047;-94
2023/07/29 02:35:29;;;;;;;0.70;0.70;;;18.40;99.90;;;;;;5076463;28;20039;-93
2023/07/29 02:37:57;;;;;;;0.70;0.70;;;18.40;99.90;;;;;;5071754;28;20085;-93
2023/07/29 02:40:41;;;;;;;0.60;0.60;;;18.10;99.90;;;;;;5074593;28;20080;-93
2023/07/29 02:43:06;;;;;;;0.70;0.70;;;18.30;99.90;;;;;;5089543;28;20047;-90
2023/07/29 02:45:32;;;;;;;0.70;0.70;;;18.20;99.90;;;;;;5074926;28;20636;-90
2023/07/29 02:48:54;;;;;;;0.63;0.63;;;18.00;99.90;;;;;;5078208;28;20601;-94
2023/07/29 02:51:33;;;;;;;0.68;0.68;;;18.10;99.90;;;;;;5008808;28;20060;-92
2023/07/29 02:54:10;;;;;;;0.80;0.80;;;17.90;99.90;;;;;;5016643;28;20052;-93
2023/07/29 02:56:38;;;;;;;0.80;0.80;;;17.80;99.90;;;;;;5062646;28;20548;-92
2023/07/29 02:59:04;;;;;;;0.65;0.65;;;17.90;99.90;;;;;;5078583;28;20131;-92
2023/07/29 03:01:53;;;;;;;0.70;0.70;;;18.00;99.90;;;;;;5079260;28;20039;-93
2023/07/29 03:05:03;;;;;;;0.75;0.75;;;17.90;99.90;;;;;;5077148;28;20472;-94
2023/07/29 03:11:45;;;;;;;;;;;;;;;;;;;;;
2023/07/29 03:14:50;;;;;;;0.70;0.70;;;17.70;99.90;;;;;;5099746;28;20508;-96
2023/07/29 03:17:34;;;;;;;0.70;0.70;;;17.70;99.90;;;;;;5095791;28;20047;-94
2023/07/29 03:19:59;;;;;;;0.70;0.70;;;17.50;99.90;;;;;;5071179;28;20047;-92
2023/07/29 03:22:26;;;;;;;0.80;0.80;;;17.60;99.90;;;;;;5077741;28;20055;-92
2023/07/29 03:24:58;;;;;;;0.70;0.70;;;17.50;99.90;;;;;;5074740;28;20036;-93
2023/07/29 03:27:24;;;;;;;0.80;0.80;;;17.40;99.90;;;;;;5072721;28;20052;-91
2023/07/29 03:29:50;;;;;;;0.80;0.80;;;17.50;99.90;;;;;;5074736;28;20051;-88
2023/07/29 03:32:15;;;;;;;1.00;1.00;;;17.30;99.90;;;;;;5073740;28;20062;-88
2023/07/29 03:34:41;;;;;;;0.80;0.80;;;17.40;99.90;;;;;;5073053;28;20075;-90
2023/07/29 03:37:07;;;;;;;0.80;0.80;;;17.30;99.90;;;;;;5090852;28;20044;-90
2023/07/29 03:39:35;;;;;;;1.00;1.00;;;17.40;99.90;;;;;;5092526;28;20051;-91
2023/07/29 03:42:01;;;;;;;0.90;0.90;;;17.50;99.90;;;;;;5076662;28;20122;-93
2023/07/29 03:44:27;;;;;;;0.90;0.90;;;17.50;99.90;;;;;;5075630;28;20111;-93
2023/07/29 03:46:53;;;;;;;0.90;0.90;;;17.30;99.90;;;;;;5092815;28;20433;-91
2023/07/29 03:49:19;;;;;;;1.00;1.00;;;17.50;99.90;;;;;;5077129;28;20047;-91
2023/07/29 03:51:45;;;;;;;1.00;1.00;;;17.50;99.90;;;;;;5077656;28;20031;-92
2023/07/29 03:54:11;;;;;;;0.98;0.98;;;17.40;99.90;;;;;;5076563;28;20055;-89
2023/07/29 03:56:38;;;;;;;1.00;1.00;;;17.20;99.90;;;;;;5071003;28;20048;-88
2023/07/29 03:59:05;;;;;;;0.90;0.90;;;17.20;99.90;;;;;;5074959;28;20508;-91
2023/07/29 04:01:32;;;;;;;1.00;1.00;;;17.40;99.90;;;;;;5076013;28;20047;-91
2023/07/29 04:04:01;;;;;;;1.00;1.00;;;17.30;99.90;;;;;;5074362;28;20040;-92
2023/07/29 04:06:27;;;;;;;1.00;1.00;;;17.20;99.90;;;;;;5071559;28;20126;-90
2023/07/29 04:08:58;;;;;;;1.02;1.02;;;17.30;99.90;;;;;;5091455;28;20044;-89
2023/07/29 04:11:24;;;;;;;1.00;1.00;;;17.30;99.90;;;;;;5093765;28;20047;-93
2023/07/29 04:13:49;;;;;;;1.00;1.00;;;17.30;99.90;;;;;;5072987;28;20081;-88
2023/07/29 04:16:16;;;;;;;1.02;1.02;;;17.40;99.90;;;;;;5086817;28;20078;-88
2023/07/29 04:18:42;;;;;;;1.00;1.00;;;17.50;99.90;;;;;;5087452;28;20044;-89
2023/07/29 04:21:09;;;;;;;1.20;1.20;;;17.30;99.90;;;;;;5087384;28;20052;-91
2023/07/29 04:23:35;;;;;;;0.95;0.95;;;17.40;99.90;;;;;;5076450;28;20043;-89
2023/07/29 04:26:01;;;;;;;1.20;1.20;;;17.30;99.90;;;;;;5075813;28;20123;-89
2023/07/29 04:28:29;;;;;;;1.60;1.50;;;17.20;99.90;;;;;;5077719;28;20107;-94
2023/07/29 04:30:55;;;;;;;1.20;1.20;;;17.40;99.90;;;;;;5077212;28;20044;-94
2023/07/29 04:33:21;;;;;;;1.20;1.20;;;17.60;99.90;;;;;;5077636;28;20035;-91
2023/07/29 04:35:46;;;;;;;1.10;1.10;;;17.40;99.90;;;;;;5074456;28;20052;-93
2023/07/29 04:42:12;;;;;;;1.20;1.20;;;17.50;99.90;;;;;;5067516;28;20063;-91
2023/07/29 04:44:38;;;;;;;1.20;1.20;;;17.40;99.90;;;;;;5032193;28;20056;-90
2023/07/29 04:47:04;;;;;;;1.20;1.20;;;17.60;99.90;;;;;;5052707;28;20051;-92
2023/07/29 04:49:30;;;;;;;1.30;1.30;;;17.60;99.90;;;;;;5073824;28;20039;-88
2023/07/29 04:52:16;;;;;;;1.15;1.15;;;17.70;99.90;;;;;;5091682;28;20104;-94
2023/07/29 04:54:47;;;;;;;1.20;1.20;;;17.60;99.90;;;;;;5061020;28;20059;-91
2023/07/29 04:57:13;;;;;;;1.50;1.40;;;17.80;99.90;;;;;;5091057;28;20040;-89
2023/07/29 04:59:42;;;;;;;1.55;1.45;;;17.60;99.90;;;;;;5092046;28;20096;-93
2023/07/29 05:02:07;;;;;;;1.40;1.40;;;17.60;99.90;;;;;;5076618;28;20054;-91
2023/07/29 05:04:33;;;;;;;1.30;1.30;;;17.50;99.90;;;;;;5078094;28;20520;-91
2023/07/29 05:06:59;;;;;;;1.50;1.40;;;17.50;99.90;;;;;;5073991;28;20042;-91
2023/07/29 05:09:25;;;;;;;1.50;1.40;;;17.70;99.90;;;;;;5075390;28;20054;-91
2023/07/29 05:11:51;;;;;;;1.30;1.30;;;17.80;99.90;;;;;;5073526;28;20048;-90
2023/07/29 05:14:17;;;;;;;1.55;1.45;;;17.50;99.90;;;;;;5072153;28;20123;-88
2023/07/29 05:16:44;;;;;;;1.50;1.40;;;17.70;99.90;;;;;;5090600;28;20085;-87
2023/07/29 05:19:10;;;;;;;1.45;1.40;;;17.80;99.90;;;;;;5070934;28;20048;-88
2023/07/29 05:21:36;;;;;;;1.50;1.40;;;17.60;99.90;;;;;;5090070;28;20745;-93
2023/07/29 05:24:02;;;;;;;1.50;1.40;;;17.60;99.90;;;;;;5075697;28;20062;-89
2023/07/29 05:26:28;;;;;;;1.33;1.33;;;17.60;99.90;;;;;;5073643;28;20039;-92
2023/07/29 05:29:00;;;;;;;1.60;1.50;;;17.60;99.90;;;;;;5076214;28;20035;-95
2023/07/29 05:31:26;;;;;;;1.52;1.42;;;17.90;99.90;;;;;;5076556;28;20050;-91
2023/07/29 05:33:52;;;;;;;1.50;1.40;;;17.80;99.90;;;;;;5073862;28;20043;-92
2023/07/29 05:36:17;;;;;;;1.50;1.40;;;17.90;99.90;;;;;;5091236;28;20054;-89
2023/07/29 05:38:43;;;;;;;1.50;1.40;;;18.20;99.90;;;;;;5069882;28;20411;-87
2023/07/29 05:41:09;;;;;;;1.50;1.40;;;17.80;99.90;;;;;;5070158;28;20043;-92
2023/07/29 05:43:37;;;;;;;1.70;1.60;;;18.10;99.90;;;;;;5071016;28;20043;-92
2023/07/29 05:46:03;;;;;;;1.50;1.40;;;18.10;99.90;;;;;;5072930;28;20039;-91
2023/07/29 05:48:29;;;;;;;1.60;1.50;;;18.20;99.90;;;;;;5068014;28;20048;-92
2023/07/29 05:50:55;;;;;;;1.60;1.50;;;18.00;99.90;;;;;;5071755;28;20047;-93
2023/07/29 05:53:38;;;;;;;1.60;1.50;;;18.20;99.90;;;;;;5073817;28;20404;-94
2023/07/29 05:56:04;;;;;;;1.60;1.50;;;18.20;99.90;;;;;;5074071;28;20039;-93
2023/07/29 05:58:33;;;;;;;1.60;1.50;;;18.10;99.90;;;;;;5074092;28;20095;-94
2023/07/29 06:01:22;;;;;;;1.50;1.40;;;18.20;99.90;;;;;;5077744;28;20493;-94
2023/07/29 06:03:50;;;;;;;1.52;1.42;;;18.10;99.90;;;;;;5091216;28;20132;-92
2023/07/29 06:06:44;;;;;;;1.60;1.50;;;18.30;99.90;;;;;;5094136;28;20156;-94
2023/07/29 06:09:10;;;;;;;1.60;1.50;;;18.30;99.90;;;;;;5071047;28;20055;-92
2023/07/29 06:11:36;;;;;;;1.60;1.50;;;18.30;99.90;;;;;;5069137;28;20036;-90
2023/07/29 06:14:01;;;;;;;1.50;1.40;;;18.30;99.90;;;;;;5071974;28;20031;-89
2023/07/29 06:16:27;;;;;;;1.50;1.40;;;18.30;99.90;;;;;;5067221;28;20048;-89
2023/07/29 06:18:53;;;;;;;1.30;1.30;;;18.50;99.90;;;;;;5070171;28;20039;-91
2023/07/29 06:21:19;;;;;;;1.33;1.33;;;18.80;99.90;;;;;;5071604;28;20800;-90
2023/07/29 06:23:48;;;;;;;1.60;1.50;;;18.70;99.90;;;;;;5091911;28;20406;-92
2023/07/29 06:26:13;;;;;;;1.52;1.42;;;18.80;99.90;;;;;;5073896;28;20138;-87
2023/07/29 06:28:42;;;;;;;1.35;1.35;;;19.10;99.90;;;;;;5077472;28;20138;-92
2023/07/29 06:31:08;;;;;;;1.58;1.48;;;19.00;99.90;;;;;;5075279;28;20044;-87
2023/07/29 06:33:33;;;;;;;1.65;1.55;;;19.10;99.90;;;;;;5070795;28;20794;-89
2023/07/29 06:35:59;;;;;;;1.63;1.52;;;19.00;99.90;;;;;;5093324;28;20047;-89
2023/07/29 06:38:25;;;;;;;1.63;1.52;;;19.10;99.90;;;;;;5092470;28;20047;-91
2023/07/29 06:40:50;;;;;;;1.67;1.58;;;18.80;99.90;;;;;;5073807;28;20096;-93
2023/07/29 06:43:19;;;;;;;1.55;1.45;;;19.00;99.90;;;;;;5077588;28;20118;-91
2023/07/29 06:45:45;;;;;;;1.38;1.35;;;19.10;99.90;;;;;;5077106;28;20039;-91
2023/07/29 06:48:11;;;;;;;1.27;1.27;;;19.20;99.90;;;;;;5077721;28;20047;-88
2023/07/29 06:50:37;;;;;;;1.60;1.50;;;19.40;99.90;;;;;;5094019;28;20096;-89
2023/07/29 06:53:06;;;;;;;1.27;1.27;;;19.50;99.90;;;;;;5077551;28;20051;-89
2023/07/29 06:55:35;;;;;;;1.48;1.40;;;19.60;99.90;;;;;;5092009;28;20039;-93
2023/07/29 06:58:00;;;;;;;1.63;1.52;;;19.60;99.90;;;;;;5073691;28;20036;-92
2023/07/29 07:00:26;;;;;;;1.63;1.52;;;19.60;99.90;;;;;;5077652;28;20069;-88
2023/07/29 07:02:51;;;;;;;1.60;1.50;;;19.70;99.90;;;;;;5077285;28;20125;-89
2023/07/29 07:05:17;;;;;;;1.60;1.50;;;19.70;99.90;;;;;;5086463;28;20176;-89
2023/07/29 07:07:49;;;;;;;1.60;1.50;;;19.70;99.90;;;;;;5075081;28;20070;-92
2023/07/29 07:10:15;;;;;;;1.52;1.42;;;19.60;99.90;;;;;;5088819;28;20528;-86
2023/07/29 07:12:40;;;;;;;1.70;1.60;;;19.70;99.90;;;;;;5087735;28;20035;-88
2023/07/29 07:15:07;;;;;;;1.63;1.52;;;20.00;99.90;;;;;;5072232;28;20158;-88
2023/07/29 07:17:32;;;;;;;1.45;1.38;;;20.40;99.90;;;;;;5072603;28;20503;-89
2023/07/29 07:19:58;;;;;;;1.50;1.42;;;20.10;99.90;;;;;;5068931;28;20044;-86
2023/07/29 07:22:24;;;;;;;1.52;1.42;;;19.90;99.90;;;;;;5087311;28;20042;-88
2023/07/29 07:24:49;;;;;;;1.42;1.40;;;19.80;99.90;;;;;;5088952;28;20093;-88
2023/07/29 07:27:15;;;;;;;1.45;1.38;;;20.10;99.90;;;;;;5073470;28;20044;-88
2023/07/29 07:29:40;;;;;;;1.42;1.40;;;20.60;99.90;;;;;;5073171;28;20058;-89
2023/07/29 07:32:06;;;;;;;1.38;1.35;;;21.00;99.90;;;;;;5072049;28;20056;-87
2023/07/29 07:34:33;;;;;;;1.25;1.25;;;21.00;99.90;;;;;;5089886;28;20679;-89
2023/07/29 07:36:59;;;;;;;1.35;1.35;;;21.40;99.90;;;;;;5085414;28;20048;-92
2023/07/29 07:39:27;;;;;;;1.30;1.30;;;21.20;99.90;;;;;;5087859;28;20767;-93
2023/07/29 07:41:53;;;;;;;1.15;1.15;;;20.90;99.90;;;;;;5071926;28;20085;-93
2023/07/29 07:44:19;;;;;;;1.02;1.02;;;20.80;99.90;;;;;;5074096;28;20457;-88
2023/07/29 07:46:45;;;;;;;0.90;0.90;;;21.10;99.90;;;;;;5090222;28;20051;-88
2023/07/29 07:49:12;;;;;;;1.13;1.13;;;21.20;99.90;;;;;;5089231;28;20043;-87
2023/07/29 07:51:39;;;;;;;1.08;1.08;;;21.00;99.90;;;;;;5089292;28;20074;-87
2023/07/29 07:54:04;;;;;;;0.93;0.93;;;21.10;99.90;;;;;;5088523;28;20055;-87
2023/07/29 07:56:30;;;;;;;0.77;0.77;;;21.10;99.90;;;;;;5086576;28;20096;-87
2023/07/29 07:58:55;;;;;;;1.13;1.13;;;21.30;99.90;;;;;;5065976;28;20052;-84
2023/07/29 08:01:21;;;;;;;1.13;1.13;;;21.50;99.90;;;;;;5087657;28;20054;-91
2023/07/29 08:03:50;;;;;;;0.95;0.95;;;21.20;99.90;;;;;;5066444;28;20058;-89
2023/07/29 08:06:15;;;;;;;0.93;0.93;;;21.20;99.90;;;;;;5069769;28;20051;-92
2023/07/29 08:08:41;;;;;;;0.60;0.60;;;21.30;99.90;;;;;;5067506;28;20202;-88
2023/07/29 08:11:07;;;;;;;0.90;0.90;;;21.10;99.90;;;;;;5069986;28;20083;-89
2023/07/29 08:13:32;;;;;;;0.90;0.90;;;21.00;99.90;;;;;;5066783;28;20046;-85
2023/07/29 08:15:58;;;;;;;0.85;0.85;;;21.00;99.90;;;;;;5086228;28;20485;-89
2023/07/29 08:18:23;;;;;;;0.80;0.80;;;21.30;99.90;;;;;;5071414;28;20058;-90
2023/07/29 08:20:58;;;;;;;0.52;0.52;;;21.20;99.90;;;;;;5073282;28;20400;-91
2023/07/29 08:23:26;;;;;;;0.60;0.60;;;21.20;99.90;;;;;;5071682;28;20079;-93
2023/07/29 08:26:00;;;;;;;0.70;0.70;;;21.00;99.90;;;;;;5089613;28;20108;-88
2023/07/29 08:28:30;;;;;;;0.70;0.70;;;21.40;99.90;;;;;;5087088;28;20845;-88
2023/07/29 08:30:56;;;;;;;0.82;0.82;;;21.60;99.90;;;;;;5072603;28;20506;-87
2023/07/29 08:33:22;;;;;;;0.80;0.80;;;21.50;99.90;;;;;;5088808;28;20065;-87
2023/07/29 08:35:47;;;;;;;0.85;0.85;;;21.20;99.90;;;;;;5069997;28;20050;-88
2023/07/29 08:38:13;;;;;;;0.88;0.88;;;21.30;99.90;;;;;;5068309;28;20055;-89
2023/07/29 08:40:45;;;;;;;0.82;0.82;;;21.70;99.90;;;;;;5065972;28;20050;-87
2023/07/29 08:43:12;;;;;;;0.82;0.82;;;21.90;99.90;;;;;;5089424;28;20039;-86
2023/07/29 08:45:43;;;;;;;0.88;0.88;;;22.00;99.90;;;;;;5085073;28;20043;-86
2023/07/29 08:48:10;;;;;;;0.73;0.73;;;22.20;99.90;;;;;;5084587;28;20114;-84
2023/07/29 08:50:37;;;;;;;0.88;0.88;;;22.10;99.90;;;;;;5085705;28;20048;-88
2023/07/29 08:53:06;;;;;;;0.77;0.77;;;21.90;99.90;;;;;;5085902;28;20039;-90
2023/07/29 08:55:32;;;;;;;0.82;0.82;;;21.70;99.90;;;;;;5084082;28;20054;-87
2023/07/29 08:58:00;;;;;;;0.75;0.75;;;21.90;99.90;;;;;;5083413;28;20082;-87
2023/07/29 09:00:26;;;;;;;0.82;0.82;;;22.10;99.90;;;;;;5085859;28;20051;-86
2023/07/29 09:02:52;;;;;;;0.85;0.85;;;21.90;99.90;;;;;;5080877;28;20048;-88
2023/07/29 09:05:20;;;;;;;0.85;0.85;;;21.80;99.90;;;;;;5067558;28;20070;-86
2023/07/29 09:07:55;;;;;;;0.75;0.75;;;22.30;99.90;;;;;;5083382;28;20074;-93
2023/07/29 09:10:23;;;;;;;0.80;0.80;;;22.90;99.90;;;;;;5065536;28;20078;-89
2023/07/29 09:12:49;;;;;;;0.80;0.80;;;22.70;99.90;;;;;;5070286;28;20532;-89
2023/07/29 09:15:31;;;;;;;0.77;0.77;;;22.60;99.90;;;;;;5085070;28;20151;-88
2023/07/29 09:17:57;;;;;;;0.80;0.80;;;22.50;99.90;;;;;;5082393;28;20057;-87
2023/07/29 09:20:25;;;;;;;0.70;0.70;;;22.20;99.90;;;;;;5085819;28;20040;-89
2023/07/29 09:22:51;;;;;;;0.88;0.88;;;22.50;99.90;;;;;;5069145;28;20043;-89
2023/07/29 09:25:23;;;;;;;0.80;0.80;;;22.50;99.90;;;;;;5067180;28;20147;-86
2023/07/29 09:27:49;;;;;;;1.02;1.02;;;22.90;99.90;;;;;;5084201;28;20154;-92
2023/07/29 09:30:18;;;;;;;0.50;0.50;;;23.30;99.90;;;;;;5068496;28;20046;-89
2023/07/29 09:32:44;;;;;;;0.73;0.73;;;23.80;99.90;;;;;;5083295;28;20039;-89
2023/07/29 09:35:13;;;;;;;0.90;0.90;;;24.00;99.90;;;;;;5087418;28;20049;-88
2023/07/29 09:37:39;;;;;;;1.20;1.20;;;23.90;99.90;;;;;;5084001;28;20039;-87
2023/07/29 09:40:06;;;;;;;1.23;1.23;;;23.50;99.90;;;;;;5087509;28;20063;-84
2023/07/29 09:42:32;;;;;;;1.10;1.10;;;24.10;99.90;;;;;;5079763;28;20095;-91
2023/07/29 09:44:58;;;;;;;0.98;0.98;;;24.40;99.90;;;;;;5086732;28;20044;-87
2023/07/29 09:47:25;;;;;;;1.10;0.93;;;24.70;99.90;;;;;;5072409;28;20057;-90
2023/07/29 09:49:52;;;;;;;1.50;1.48;;;24.20;99.90;;;;;;5086135;28;20899;-86
2023/07/29 09:52:19;;;;;;;0.30;0.30;;;24.20;99.90;;;;;;5070083;28;20070;-83
2023/07/29 09:54:46;;;;;;;0.98;0.98;;;23.80;99.90;;;;;;5087272;28;20059;-88
2023/07/29 09:57:14;;;;;;;0.30;0.30;;;23.60;99.90;;;;;;5086253;28;20132;-87
2023/07/29 09:59:40;;;;;;;0.88;0.88;;;23.30;99.90;;;;;;5084438;28;20035;-91
2023/07/29 10:02:15;;;;;;;0.93;0.93;;;23.00;99.90;;;;;;5083600;28;20047;-92
2023/07/29 10:04:42;;;;;;;0.43;0.43;;;22.80;99.90;;;;;;5070260;28;20112;-85
2023/07/29 10:07:10;;;;;;;0.68;0.68;;;22.60;99.90;;;;;;5086659;28;20051;-87
2023/07/29 10:09:37;;;;;;;0.77;0.77;;;22.40;99.90;;;;;;5079938;28;20578;-88
2023/07/29 10:12:05;;;;;;;0.55;0.55;;;22.40;99.90;;;;;;5067873;28;20113;-83
2023/07/29 10:14:31;;;;;;;0.80;0.80;;;22.90;99.90;;;;;;5082727;28;20040;-83
2023/07/29 10:16:57;;;;;;;0.82;0.82;;;23.10;99.90;;;;;;5084494;28;20585;-86
2023/07/29 10:19:25;;;;;;;0.30;0.30;;;24.00;99.90;;;;;;5081203;28;20130;-84
2023/07/29 10:21:52;;;;;;;0.95;0.95;;;24.30;99.90;;;;;;5084550;28;20048;-84
2023/07/29 10:24:28;;;;;;;1.05;1.05;;;23.90;99.90;;;;;;5064560;28;20044;-84
2023/07/29 10:27:00;;;;;;;1.02;1.02;;;24.20;99.90;;;;;;5085923;28;20515;-85
2023/07/29 10:29:31;;;;;;;0.30;0.30;;;23.90;99.90;;;;;;5063716;28;20104;-85
2023/07/29 10:32:00;;;;;;;1.10;1.10;;;23.60;99.90;;;;;;5089488;28;20573;-86
2023/07/29 10:34:27;;;;;;;0.98;0.98;;;23.60;99.90;;;;;;5082442;28;20050;-82
2023/07/29 10:36:53;;;;;;;0.82;0.82;;;24.00;99.90;;;;;;5085418;28;20051;-83
2023/07/29 10:39:19;;;;;;;1.13;1.13;;;23.50;99.90;;;;;;5081659;28;20155;-84
2023/07/29 10:41:59;;;;;;;0.30;0.30;;;23.40;99.90;;;;;;5085603;28;20130;-86
2023/07/29 10:44:40;;;;;;;1.15;1.15;;;23.70;99.90;;;;;;5067913;28;20821;-83
2023/07/29 10:47:21;;;;;;;1.25;1.25;;;23.80;99.90;;;;;;5068018;28;20047;-85
2023/07/29 10:49:55;;;;;;;0.93;0.93;;;23.70;99.90;;;;;;5103199;28;20457;-87
2023/07/29 10:52:47;;;;;;;0.82;0.82;;;24.00;99.90;;;;;;5083199;28;20118;-87
2023/07/29 10:55:41;;;;;;;0.57;0.57;;;24.80;99.90;;;;;;5075348;28;20566;-82
2023/07/29 10:58:14;;;;;;;1.40;1.37;;;24.10;99.90;;;;;;5082250;28;20116;-80
2023/07/29 11:00:43;;;;;;;0.95;0.95;;;24.40;99.90;;;;;;5087752;28;20301;-83
2023/07/29 11:03:09;;;;;;;0.30;0.30;;;24.50;99.90;;;;;;5080625;28;20096;-86
2023/07/29 11:05:54;;;;;;;0.30;0.30;;;24.40;99.90;;;;;;5066834;28;20051;-82
2023/07/29 11:08:30;;;;;;;0.93;0.93;;;23.70;99.90;;;;;;5088807;28;20054;-87
2023/07/29 11:10:59;;;;;;;0.40;0.40;;;23.60;99.90;;;;;;5085345;28;20082;-91
2023/07/29 11:13:29;;;;;;;0.30;0.30;;;23.60;99.90;;;;;;5088086;28;20047;-84
2023/07/29 11:15:56;;;;;;;0.50;0.50;;;23.20;99.90;;;;;;5089025;28;20048;-84
2023/07/29 11:18:22;;;;;;;0.55;0.55;;;22.80;99.90;;;;;;5085805;28;20176;-87
2023/07/29 11:20:50;;;;;;;0.70;0.70;;;22.80;99.90;;;;;;5072025;28;20599;-86
2023/07/29 11:23:16;;;;;;;0.55;0.55;;;22.90;99.90;;;;;;5089822;28;20043;-87
2023/07/29 11:25:42;;;;;;;1.02;1.02;;;23.00;99.90;;;;;;5088068;28;20046;-92
2023/07/29 11:28:08;;;;;;;0.38;0.38;;;23.30;99.90;;;;;;5071276;28;20047;-84
2023/07/29 11:30:34;;;;;;;0.63;0.63;;;23.30;99.90;;;;;;5084705;28;20025;-86
2023/07/29 11:32:59;;;;;;;0.73;0.73;;;23.10;99.90;;;;;;5089597;28;20043;-85
2023/07/29 11:35:25;;;;;;;0.60;0.60;;;22.80;99.90;;;;;;5089853;28;20051;-86
2023/07/29 11:38:14;;;;;;;0.80;0.80;;;22.50;99.90;;;;;;5069854;28;21649;-94
2023/07/29 11:40:40;;;;;;;0.90;0.90;;;22.20;99.90;;;;;;5069706;28;20043;-87
2023/07/29 11:43:05;;;;;;;0.60;0.60;;;22.10;99.90;;;;;;5091729;28;20113;-87
2023/07/29 11:45:31;;;;;;;0.70;0.70;;;22.10;99.90;;;;;;5089126;28;20063;-89
2023/07/29 11:47:58;;;;;;;0.90;0.90;;;21.90;99.90;;;;;;5085240;28;20564;-89
2023/07/29 11:50:26;;;;;;;0.70;0.70;;;21.90;99.90;;;;;;5085035;28;20115;-89
2023/07/29 11:52:52;;;;;;;0.90;0.90;;;22.10;99.90;;;;;;5068107;28;20073;-87
2023/07/29 11:55:19;;;;;;;0.80;0.80;;;22.60;99.90;;;;;;5070609;28;20040;-90
2023/07/29 11:57:51;;;;;;;0.88;0.88;;;23.20;99.90;;;;;;5069994;28;20067;-86
2023/07/29 12:00:18;;;;;;;0.80;0.80;;;23.20;99.90;;;;;;5087248;28;20051;-88
2023/07/29 12:02:45;;;;;;;0.80;0.80;;;23.50;99.90;;;;;;5087669;28;20108;-86
2023/07/29 12:05:13;;;;;;;0.70;0.70;;;23.90;99.90;;;;;;5085476;28;20481;-85
2023/07/29 12:07:41;;;;;;;0.30;0.30;;;24.20;99.90;;;;;;5087830;28;20048;-83
2023/07/29 12:10:07;;;;;;;0.85;0.85;;;24.40;99.90;;;;;;5069480;28;20090;-85
2023/07/29 12:12:33;;;;;;;0.55;0.55;;;24.30;99.90;;;;;;5086115;28;20044;-82
2023/07/29 12:14:58;;;;;;;0.75;0.75;;;24.40;99.90;;;;;;5085467;28;20047;-87
2023/07/29 12:17:24;;;;;;;0.20;0.20;;;24.70;99.90;;;;;;5085174;28;20050;-87
2023/07/29 12:19:53;;;;;;;0.30;0.30;;;25.20;99.90;;;;;;5087498;28;20037;-85
2023/07/29 12:22:20;;;;;;;0.60;0.60;;;25.00;99.90;;;;;;5069931;28;20931;-86
2023/07/29 12:24:45;;;;;;;0.63;0.63;;;25.40;99.90;;;;;;5083741;28;20096;-86
2023/07/29 12:27:15;;;;;;;0.30;0.30;;;24.50;99.90;;;;;;5086999;28;20051;-86
2023/07/29 12:29:42;;;;;;;0.30;0.30;;;24.20;99.90;;;;;;5066878;28;20051;-89
2023/07/29 12:32:08;;;;;;;0.30;0.30;;;24.10;99.90;;;;;;5083689;28;20059;-88
2023/07/29 12:34:35;;;;;;;0.30;0.30;;;24.20;99.90;;;;;;5083141;28;20665;-93
2023/07/29 12:37:02;;;;;;;0.80;0.80;;;24.90;99.90;;;;;;5068102;28;20050;-88
2023/07/29 12:39:41;;;;;;;0.30;0.30;;;25.60;99.90;;;;;;5070353;28;20055;-96
2023/07/29 12:42:07;;;;;;;0.30;0.30;;;25.80;99.90;;;;;;5101945;28;20100;-84
2023/07/29 12:44:34;;;;;;;0.20;0.20;;;26.20;99.90;;;;;;5083612;28;20043;-89
2023/07/29 12:47:05;;;;;;;0.40;0.40;;;26.30;99.90;;;;;;5086728;28;20043;-85
2023/07/29 12:49:32;;;;;;;0.30;0.30;;;25.80;99.90;;;;;;5073522;28;20119;-89
2023/07/29 12:51:58;;;;;;;0.30;0.30;;;25.90;99.90;;;;;;5072902;28;20047;-92
2023/07/29 12:54:24;;;;;;;0.30;0.30;;;25.40;99.90;;;;;;5088465;28;20066;-85
2023/07/29 12:56:50;;;;;;;0.30;0.30;;;25.60;99.90;;;;;;5082937;28;20488;-86
2023/07/29 12:59:16;;;;;;;0.30;0.30;;;25.80;99.90;;;;;;5070603;28;20050;-84
2023/07/29 13:01:41;;;;;;;0.30;0.30;;;25.60;99.90;;;;;;5103936;28;20792;-89
2023/07/29 13:04:07;;;;;;;0.30;0.30;;;26.00;99.90;;;;;;5084726;28;20054;-87
2023/07/29 13:06:33;;;;;;;0.30;0.30;;;26.40;99.90;;;;;;5085826;28;20200;-84